createdAt,value
2017-06-24T00:00:18.585Z,0
2017-06-24T00:01:18.883Z,0
2017-06-24T00:02:18.868Z,0
2017-06-24T00:03:18.862Z,0
2017-06-24T00:04:18.842Z,0
2017-06-24T00:05:18.837Z,0
2017-06-24T00:06:18.821Z,0
2017-06-24T00:07:18.818Z,0
2017-06-24T00:08:18.806Z,0
2017-06-24T00:09:18.800Z,0
2017-06-24T00:10:18.493Z,0
2017-06-24T00:11:18.776Z,0
2017-06-24T00:12:18.766Z,0
2017-06-24T00:13:18.762Z,0
2017-06-24T00:14:18.750Z,0
2017-06-24T00:15:18.436Z,0
2017-06-24T00:16:18.731Z,0
2017-06-24T00:17:18.728Z,0
2017-06-24T00:18:18.405Z,0
2017-06-24T00:19:18.698Z,0
2017-06-24T00:20:18.692Z,0
2017-06-24T00:21:18.673Z,0
2017-06-24T00:22:18.672Z,0
2017-06-24T00:23:18.659Z,0
2017-06-24T00:24:18.655Z,0
2017-06-24T00:25:18.639Z,0
2017-06-24T00:26:18.632Z,0
2017-06-24T00:27:18.622Z,0
2017-06-24T00:28:18.615Z,0
2017-06-24T00:29:18.597Z,0
2017-06-24T00:30:18.594Z,0
2017-06-24T00:31:18.580Z,0
2017-06-24T00:32:18.272Z,0
2017-06-24T00:33:17.959Z,0
2017-06-24T00:34:18.548Z,0
2017-06-24T00:35:18.543Z,0
2017-06-24T00:36:17.931Z,0
2017-06-24T00:37:18.531Z,0
2017-06-24T00:38:18.509Z,0
2017-06-24T00:39:18.206Z,0
2017-06-24T00:40:18.490Z,0
2017-06-24T00:41:18.177Z,0
2017-06-24T00:42:18.478Z,0
2017-06-24T00:43:18.163Z,0
2017-06-24T00:44:18.487Z,0
2017-06-24T00:45:18.448Z,0
2017-06-24T00:46:18.433Z,0
2017-06-24T00:47:18.426Z,0
2017-06-24T00:48:18.415Z,0
2017-06-24T00:49:18.408Z,0
2017-06-24T00:50:18.392Z,0
2017-06-24T00:51:18.086Z,0
2017-06-24T00:52:18.071Z,0
2017-06-24T00:53:17.762Z,0
2017-06-24T00:54:18.355Z,0
2017-06-24T00:55:17.748Z,0
2017-06-24T00:56:18.340Z,0
2017-06-24T00:57:18.328Z,0
2017-06-24T00:58:18.315Z,0
2017-06-24T00:59:18.310Z,0
2017-06-24T01:00:18.301Z,0
2017-06-24T01:01:18.291Z,0
2017-06-24T01:02:18.274Z,0
2017-06-24T01:03:17.962Z,0
2017-06-24T01:04:17.654Z,0
2017-06-24T01:05:18.245Z,0
2017-06-24T01:06:18.240Z,0
2017-06-24T01:07:18.224Z,0
2017-06-24T01:08:18.220Z,0
2017-06-24T01:09:18.212Z,0
2017-06-24T01:10:18.198Z,0
2017-06-24T01:11:18.185Z,0
2017-06-24T01:12:18.188Z,0
2017-06-24T01:13:18.170Z,0
2017-06-24T01:14:17.859Z,0
2017-06-24T01:15:17.843Z,0
2017-06-24T01:16:17.853Z,0
2017-06-24T01:17:17.829Z,0
2017-06-24T01:18:18.121Z,0
2017-06-24T01:19:17.813Z,0
2017-06-24T01:20:17.797Z,0
2017-06-24T01:21:18.097Z,0
2017-06-24T01:22:17.779Z,0
2017-06-24T01:23:17.770Z,0
2017-06-24T01:24:17.757Z,0
2017-06-24T01:25:17.751Z,0
2017-06-24T01:26:18.042Z,0
2017-06-24T01:27:18.032Z,0
2017-06-24T01:28:17.719Z,0
2017-06-24T01:29:18.008Z,0
2017-06-24T01:30:17.701Z,0
2017-06-24T01:31:17.993Z,0
2017-06-24T01:32:17.681Z,0
2017-06-24T01:33:17.668Z,0
2017-06-24T01:34:17.659Z,0
2017-06-24T01:35:17.952Z,0
2017-06-24T01:36:17.953Z,0
2017-06-24T01:37:17.932Z,0
2017-06-24T01:38:17.926Z,0
2017-06-24T01:39:17.918Z,0
2017-06-24T01:40:17.603Z,0
2017-06-24T01:41:17.623Z,0
2017-06-24T01:42:17.587Z,0
2017-06-24T01:43:17.882Z,0
2017-06-24T01:44:17.868Z,0
2017-06-24T01:45:17.556Z,0
2017-06-24T01:46:17.850Z,0
2017-06-24T01:47:17.836Z,0
2017-06-24T01:48:17.834Z,0
2017-06-24T01:49:17.818Z,0
2017-06-24T01:50:17.816Z,0
2017-06-24T01:51:17.806Z,0
2017-06-24T01:52:17.798Z,0
2017-06-24T01:53:17.482Z,0
2017-06-24T01:54:17.471Z,0
2017-06-24T01:55:17.462Z,0
2017-06-24T01:56:17.456Z,0
2017-06-24T01:57:17.440Z,0
2017-06-24T01:58:17.435Z,0
2017-06-24T01:59:17.731Z,0
2017-06-24T02:00:17.717Z,0
2017-06-24T02:01:17.708Z,0
2017-06-24T02:02:17.696Z,0
2017-06-24T02:03:17.385Z,0
2017-06-24T02:04:17.681Z,0
2017-06-24T02:05:17.362Z,0
2017-06-24T02:06:17.360Z,0
2017-06-24T02:07:17.349Z,0
2017-06-24T02:08:17.333Z,0
2017-06-24T02:09:17.328Z,0
2017-06-24T02:10:17.618Z,0
2017-06-24T02:11:17.606Z,0
2017-06-24T02:12:17.598Z,0
2017-06-24T02:13:17.280Z,0
2017-06-24T02:14:17.272Z,0
2017-06-24T02:15:17.261Z,0
2017-06-24T02:16:17.257Z,0
2017-06-24T02:17:17.543Z,0
2017-06-24T02:18:17.541Z,0
2017-06-24T02:19:17.526Z,0
2017-06-24T02:20:17.520Z,0
2017-06-24T02:21:17.508Z,0
2017-06-24T02:22:17.200Z,0
2017-06-24T02:23:17.488Z,0
2017-06-24T02:24:17.481Z,0
2017-06-24T02:25:17.477Z,0
2017-06-24T02:26:17.459Z,0
2017-06-24T02:27:17.450Z,0
2017-06-24T02:28:17.443Z,0
2017-06-24T02:29:17.433Z,0
2017-06-24T02:30:17.425Z,0
2017-06-24T02:31:17.414Z,0
2017-06-24T02:32:17.398Z,0
2017-06-24T02:33:17.088Z,0
2017-06-24T02:34:17.381Z,0
2017-06-24T02:35:17.377Z,0
2017-06-24T02:36:17.358Z,0
2017-06-24T02:37:17.349Z,0
2017-06-24T02:38:17.340Z,0
2017-06-24T02:39:17.323Z,0
2017-06-24T02:40:17.324Z,0
2017-06-24T02:41:17.319Z,0
2017-06-24T02:42:17.298Z,0
2017-06-24T02:43:16.986Z,0
2017-06-24T02:44:17.285Z,0
2017-06-24T02:45:17.267Z,0
2017-06-24T02:46:17.266Z,0
2017-06-24T02:47:17.252Z,0
2017-06-24T02:48:17.241Z,0
2017-06-24T02:49:17.230Z,0
2017-06-24T02:50:16.921Z,0
2017-06-24T02:51:17.214Z,0
2017-06-24T02:52:16.902Z,0
2017-06-24T02:53:17.194Z,0
2017-06-24T02:54:17.185Z,0
2017-06-24T02:55:16.869Z,0
2017-06-24T02:56:17.162Z,0
2017-06-24T02:57:17.155Z,0
2017-06-24T02:58:17.147Z,0
2017-06-24T02:59:17.128Z,0
2017-06-24T03:00:17.123Z,0
2017-06-24T03:01:17.114Z,0
2017-06-24T03:02:17.105Z,0
2017-06-24T03:03:17.104Z,0
2017-06-24T03:04:17.087Z,5
2017-06-24T03:05:17.073Z,5
2017-06-24T03:06:17.064Z,5
2017-06-24T03:07:17.052Z,5
2017-06-24T03:08:17.044Z,5
2017-06-24T03:09:17.036Z,5
2017-06-24T03:10:16.719Z,5
2017-06-24T03:11:17.012Z,5
2017-06-24T03:12:17.001Z,10
2017-06-24T03:13:16.994Z,10
2017-06-24T03:14:16.679Z,10
2017-06-24T03:15:16.975Z,10
2017-06-24T03:16:16.662Z,10
2017-06-24T03:17:16.351Z,15
2017-06-24T03:18:16.947Z,15
2017-06-24T03:19:16.634Z,20
2017-06-24T03:20:16.943Z,20
2017-06-24T03:21:16.922Z,25
2017-06-24T03:22:16.609Z,20
2017-06-24T03:23:16.899Z,25
2017-06-24T03:24:16.897Z,25
2017-06-24T03:25:16.878Z,30
2017-06-24T03:26:16.867Z,30
2017-06-24T03:27:16.862Z,30
2017-06-24T03:28:16.849Z,35
2017-06-24T03:29:16.842Z,40
2017-06-24T03:30:16.837Z,40
2017-06-24T03:31:16.825Z,40
2017-06-24T03:32:16.813Z,45
2017-06-24T03:33:16.801Z,55
2017-06-24T03:34:16.790Z,55
2017-06-24T03:35:16.777Z,60
2017-06-24T03:36:16.769Z,65
2017-06-24T03:37:16.765Z,70
2017-06-24T03:38:16.745Z,75
2017-06-24T03:39:16.738Z,75
2017-06-24T03:40:16.732Z,75
2017-06-24T03:41:16.721Z,80
2017-06-24T03:42:16.707Z,85
2017-06-24T03:43:16.698Z,90
2017-06-24T03:44:16.687Z,90
2017-06-24T03:45:16.686Z,95
2017-06-24T03:46:16.672Z,105
2017-06-24T03:47:16.358Z,105
2017-06-24T03:48:16.351Z,110
2017-06-24T03:49:16.643Z,115
2017-06-24T03:50:16.635Z,120
2017-06-24T03:51:16.826Z,120
2017-06-24T03:52:16.620Z,125
2017-06-24T03:53:16.603Z,120
2017-06-24T03:54:16.591Z,125
2017-06-24T03:55:16.585Z,135
2017-06-24T03:56:16.479Z,145
2017-06-24T03:57:16.566Z,155
2017-06-24T03:58:16.558Z,155
2017-06-24T03:59:16.548Z,170
2017-06-24T04:00:16.535Z,150
2017-06-24T04:01:16.121Z,160
2017-06-24T04:02:16.719Z,165
2017-06-24T04:03:15.904Z,160
2017-06-24T04:04:16.494Z,165
2017-06-24T04:05:16.485Z,170
2017-06-24T04:06:16.477Z,175
2017-06-24T04:07:16.498Z,175
2017-06-24T04:08:16.458Z,180
2017-06-24T04:09:16.147Z,185
2017-06-24T04:10:16.144Z,190
2017-06-24T04:11:16.125Z,195
2017-06-24T04:12:16.427Z,195
2017-06-24T04:13:16.409Z,200
2017-06-24T04:14:16.122Z,200
2017-06-24T04:15:16.397Z,205
2017-06-24T04:16:16.377Z,215
2017-06-24T04:17:16.373Z,220
2017-06-24T04:18:16.059Z,230
2017-06-24T04:19:16.352Z,245
2017-06-24T04:20:16.040Z,235
2017-06-24T04:21:16.030Z,235
2017-06-24T04:22:16.018Z,245
2017-06-24T04:23:16.317Z,250
2017-06-24T04:24:15.395Z,255
2017-06-24T04:25:15.994Z,280
2017-06-24T04:26:15.979Z,280
2017-06-24T04:27:16.272Z,295
2017-06-24T04:28:16.463Z,315
2017-06-24T04:29:15.954Z,340
2017-06-24T04:30:15.940Z,290
2017-06-24T04:31:16.231Z,345
2017-06-24T04:32:16.230Z,325
2017-06-24T04:33:16.415Z,350
2017-06-24T04:34:15.908Z,455
2017-06-24T04:35:16.195Z,375
2017-06-24T04:36:16.187Z,410
2017-06-24T04:37:16.179Z,355
2017-06-24T04:38:16.371Z,400
2017-06-24T04:39:16.060Z,560
2017-06-24T04:40:16.155Z,495
2017-06-24T04:41:15.839Z,590
2017-06-24T04:42:16.126Z,740
2017-06-24T04:43:16.118Z,690
2017-06-24T04:44:16.118Z,445
2017-06-24T04:45:16.104Z,615
2017-06-24T04:46:16.090Z,455
2017-06-24T04:47:16.090Z,830
2017-06-24T04:48:15.473Z,475
2017-06-24T04:49:16.065Z,555
2017-06-24T04:50:16.054Z,445
2017-06-24T04:51:16.052Z,550
2017-06-24T04:52:16.041Z,550
2017-06-24T04:53:16.032Z,395
2017-06-24T04:54:16.043Z,490
2017-06-24T04:55:16.020Z,405
2017-06-24T04:56:15.703Z,545
2017-06-24T04:57:15.992Z,525
2017-06-24T04:58:15.989Z,440
2017-06-24T04:59:15.675Z,620
2017-06-24T05:00:15.973Z,605
2017-06-24T05:01:15.961Z,620
2017-06-24T05:02:15.949Z,630
2017-06-24T05:03:15.941Z,590
2017-06-24T05:04:15.957Z,600
2017-06-24T05:05:15.922Z,475
2017-06-24T05:06:29.547Z,475
2017-06-24T05:07:15.600Z,530
2017-06-24T05:08:15.903Z,575
2017-06-24T05:09:15.584Z,760
2017-06-24T05:10:15.577Z,705
2017-06-24T05:11:29.255Z,730
2017-06-24T05:12:29.195Z,780
2017-06-24T05:13:15.549Z,685
2017-06-24T05:14:15.842Z,615
2017-06-24T05:15:15.830Z,905
2017-06-24T05:16:15.522Z,1180
2017-06-24T05:17:15.818Z,745
2017-06-24T05:18:15.803Z,830
2017-06-24T05:19:15.500Z,835
2017-06-24T05:20:15.791Z,910
2017-06-24T05:21:15.473Z,665
2017-06-24T05:22:15.467Z,900
2017-06-24T05:23:15.464Z,725
2017-06-24T05:24:15.749Z,875
2017-06-24T05:25:15.443Z,720
2017-06-24T05:26:15.435Z,980
2017-06-24T05:27:15.431Z,635
2017-06-24T05:28:15.412Z,680
2017-06-24T05:29:15.708Z,860
2017-06-24T05:30:15.697Z,675
2017-06-24T05:31:15.692Z,725
2017-06-24T05:32:15.684Z,915
2017-06-24T05:33:15.670Z,1000
2017-06-24T05:34:15.667Z,1335
2017-06-24T05:35:15.665Z,780
2017-06-24T05:36:15.641Z,1070
2017-06-24T05:37:15.662Z,1345
2017-06-24T05:38:15.046Z,1175
2017-06-24T05:39:15.620Z,950
2017-06-24T05:40:15.306Z,1130
2017-06-24T05:41:15.595Z,1180
2017-06-24T05:42:15.591Z,1645
2017-06-24T05:43:15.482Z,1095
2017-06-24T05:44:15.569Z,1360
2017-06-24T05:45:14.959Z,1560
2017-06-24T05:46:15.559Z,1520
2017-06-24T05:47:15.551Z,1650
2017-06-24T05:48:15.736Z,1440
2017-06-24T05:49:15.735Z,1595
2017-06-24T05:50:14.621Z,1665
2017-06-24T05:51:15.508Z,1865
2017-06-24T05:52:15.509Z,1875
2017-06-24T05:53:15.495Z,1680
2017-06-24T05:54:15.387Z,1775
2017-06-24T05:55:15.503Z,1720
2017-06-24T05:56:15.475Z,1885
2017-06-24T05:57:15.462Z,1635
2017-06-24T05:58:15.459Z,1825
2017-06-24T05:59:15.647Z,1095
2017-06-24T06:00:15.447Z,1915
2017-06-24T06:01:15.440Z,2000
2017-06-24T06:02:15.120Z,1010
2017-06-24T06:03:15.112Z,1615
2017-06-24T06:04:15.404Z,1535
2017-06-24T06:05:15.093Z,1355
2017-06-24T06:06:15.391Z,1110
2017-06-24T06:07:15.386Z,780
2017-06-24T06:08:15.385Z,950
2017-06-24T06:09:15.061Z,800
2017-06-24T06:10:15.357Z,885
2017-06-24T06:11:15.043Z,1590
2017-06-24T06:12:15.034Z,2210
2017-06-24T06:13:15.026Z,1730
2017-06-24T06:14:15.322Z,1495
2017-06-24T06:15:15.312Z,1120
2017-06-24T06:16:15.006Z,855
2017-06-24T06:17:15.289Z,1125
2017-06-24T06:18:14.987Z,1130
2017-06-24T06:19:14.981Z,1605
2017-06-24T06:20:15.275Z,1515
2017-06-24T06:21:15.168Z,1360
2017-06-24T06:22:15.156Z,1320
2017-06-24T06:23:14.953Z,1535
2017-06-24T06:24:15.237Z,2010
2017-06-24T06:25:15.233Z,1485
2017-06-24T06:26:15.421Z,1225
2017-06-24T06:27:15.418Z,1810
2017-06-24T06:28:14.903Z,2395
2017-06-24T06:29:14.896Z,1800
2017-06-24T06:30:14.589Z,2020
2017-06-24T06:31:14.885Z,1300
2017-06-24T06:32:14.871Z,2590
2017-06-24T06:33:15.171Z,1435
2017-06-24T06:34:14.855Z,1495
2017-06-24T06:35:14.847Z,1695
2017-06-24T06:36:15.348Z,1775
2017-06-24T06:37:15.138Z,1495
2017-06-24T06:38:15.131Z,1305
2017-06-24T06:39:15.120Z,1565
2017-06-24T06:40:15.119Z,1290
2017-06-24T06:41:15.109Z,1705
2017-06-24T06:42:15.099Z,1015
2017-06-24T06:43:15.088Z,1910
2017-06-24T06:44:14.782Z,815
2017-06-24T06:45:14.775Z,1760
2017-06-24T06:46:15.072Z,1510
2017-06-24T06:47:14.802Z,1515
2017-06-24T06:48:14.758Z,1930
2017-06-24T06:49:15.045Z,860
2017-06-24T06:50:15.039Z,1455
2017-06-24T06:51:15.028Z,1195
2017-06-24T06:52:15.031Z,965
2017-06-24T06:53:15.018Z,1565
2017-06-24T06:54:15.003Z,1200
2017-06-24T06:55:15.007Z,1485
2017-06-24T06:56:14.995Z,2425
2017-06-24T06:57:14.381Z,1945
2017-06-24T06:58:14.981Z,2160
2017-06-24T06:59:14.671Z,2585
2017-06-24T07:00:14.872Z,2180
2017-06-24T07:01:14.968Z,2915
2017-06-24T07:02:14.950Z,2000
2017-06-24T07:03:14.944Z,1475
2017-06-24T07:04:14.941Z,1700
2017-06-24T07:05:28.045Z,980
2017-06-24T07:06:28.314Z,1325
2017-06-24T07:07:14.615Z,1580
2017-06-24T07:08:14.604Z,2185
2017-06-24T07:09:14.897Z,2830
2017-06-24T07:10:14.896Z,2955
2017-06-24T07:11:14.587Z,3460
2017-06-24T07:12:14.908Z,3370
2017-06-24T07:13:14.874Z,1480
2017-06-24T07:14:14.572Z,1480
2017-06-24T07:15:14.860Z,1575
2017-06-24T07:16:14.557Z,1550
2017-06-24T07:17:14.849Z,1790
2017-06-24T07:18:14.845Z,1745
2017-06-24T07:19:14.841Z,2410
2017-06-24T07:20:14.828Z,2160
2017-06-24T07:21:14.824Z,1575
2017-06-24T07:22:14.822Z,3155
2017-06-24T07:23:14.814Z,2965
2017-06-24T07:24:14.808Z,2930
2017-06-24T07:25:14.807Z,3180
2017-06-24T07:26:14.800Z,3470
2017-06-24T07:27:14.789Z,2200
2017-06-24T07:28:14.783Z,2215
2017-06-24T07:29:14.781Z,1530
2017-06-24T07:30:14.772Z,1735
2017-06-24T07:31:14.769Z,2955
2017-06-24T07:32:14.779Z,2955
2017-06-24T07:33:14.755Z,3115
2017-06-24T07:34:14.444Z,3355
2017-06-24T07:35:14.435Z,3290
2017-06-24T07:36:14.435Z,3970
2017-06-24T07:37:14.422Z,2740
2017-06-24T07:38:14.417Z,1925
2017-06-24T07:39:14.317Z,1695
2017-06-24T07:40:14.620Z,2695
2017-06-24T07:41:14.395Z,3860
2017-06-24T07:42:14.691Z,1900
2017-06-24T07:43:14.689Z,3345
2017-06-24T07:44:14.677Z,4230
2017-06-24T07:45:14.069Z,3980
2017-06-24T07:46:14.369Z,3180
2017-06-24T07:47:14.359Z,3310
2017-06-24T07:48:14.350Z,2250
2017-06-24T07:49:14.654Z,3275
2017-06-24T07:50:14.341Z,2230
2017-06-24T07:51:14.636Z,1470
2017-06-24T07:52:14.623Z,2810
2017-06-24T07:53:14.629Z,1770
2017-06-24T07:54:14.316Z,2200
2017-06-24T07:55:14.616Z,2210
2017-06-24T07:56:14.606Z,1450
2017-06-24T07:57:14.595Z,2380
2017-06-24T07:58:14.588Z,1500
2017-06-24T07:59:14.585Z,2655
2017-06-24T08:00:14.575Z,3570
2017-06-24T08:01:14.572Z,2295
2017-06-24T08:02:14.565Z,3815
2017-06-24T08:03:14.586Z,3615
2017-06-24T08:04:14.249Z,3425
2017-06-24T08:05:14.549Z,3975
2017-06-24T08:06:14.538Z,2510
2017-06-24T08:07:14.535Z,2085
2017-06-24T08:08:14.523Z,1510
2017-06-24T08:09:14.524Z,1435
2017-06-24T08:10:14.515Z,1615
2017-06-24T08:11:14.509Z,1290
2017-06-24T08:12:14.204Z,1360
2017-06-24T08:13:14.503Z,1130
2017-06-24T08:14:14.497Z,730
2017-06-24T08:15:13.881Z,960
2017-06-24T08:16:14.484Z,1875
2017-06-24T08:17:14.479Z,1635
2017-06-24T08:18:14.468Z,4375
2017-06-24T08:19:14.166Z,2090
2017-06-24T08:20:14.461Z,3415
2017-06-24T08:21:14.450Z,1755
2017-06-24T08:22:14.142Z,1540
2017-06-24T08:23:14.440Z,1475
2017-06-24T08:24:14.433Z,1955
2017-06-24T08:25:14.129Z,1220
2017-06-24T08:26:14.419Z,1330
2017-06-24T08:27:14.414Z,1690
2017-06-24T08:28:14.409Z,2090
2017-06-24T08:29:14.408Z,4465
2017-06-24T08:30:14.403Z,3485
2017-06-24T08:31:14.389Z,3320
2017-06-24T08:32:14.390Z,4020
2017-06-24T08:33:14.377Z,3670
2017-06-24T08:34:14.381Z,2415
2017-06-24T08:35:14.064Z,3500
2017-06-24T08:36:14.059Z,2695
2017-06-24T08:37:14.353Z,2680
2017-06-24T08:38:14.353Z,2855
2017-06-24T08:39:14.349Z,3485
2017-06-24T08:40:14.344Z,3165
2017-06-24T08:41:14.334Z,3510
2017-06-24T08:42:14.068Z,2595
2017-06-24T08:43:14.325Z,2355
2017-06-24T08:44:14.322Z,2590
2017-06-24T08:45:14.319Z,4450
2017-06-24T08:46:14.007Z,2255
2017-06-24T08:47:14.300Z,1830
2017-06-24T08:48:14.296Z,1475
2017-06-24T08:49:14.293Z,1650
2017-06-24T08:50:14.288Z,1835
2017-06-24T08:51:14.281Z,3745
2017-06-24T08:52:13.968Z,2140
2017-06-24T08:53:13.966Z,2210
2017-06-24T08:54:14.263Z,1825
2017-06-24T08:55:14.251Z,1725
2017-06-24T08:56:14.244Z,1990
2017-06-24T08:57:13.937Z,1940
2017-06-24T08:58:14.229Z,1910
2017-06-24T08:59:14.231Z,2035
2017-06-24T09:00:14.227Z,1955
2017-06-24T09:01:14.214Z,1940
2017-06-24T09:02:13.903Z,1255
2017-06-24T09:03:14.206Z,2600
2017-06-24T09:04:13.934Z,1730
2017-06-24T09:05:14.190Z,3395
2017-06-24T09:06:14.183Z,3810
2017-06-24T09:07:14.178Z,3610
2017-06-24T09:08:14.174Z,3545
2017-06-24T09:09:14.162Z,4215
2017-06-24T09:10:14.162Z,4705
2017-06-24T09:11:13.861Z,5015
2017-06-24T09:12:14.149Z,4680
2017-06-24T09:13:13.840Z,3900
2017-06-24T09:14:13.841Z,4665
2017-06-24T09:15:14.136Z,2880
2017-06-24T09:16:14.128Z,4935
2017-06-24T09:17:13.819Z,3215
2017-06-24T09:18:13.810Z,4485
2017-06-24T09:19:13.812Z,5675
2017-06-24T09:20:14.120Z,3245
2017-06-24T09:21:14.106Z,2035
2017-06-24T09:22:13.797Z,2320
2017-06-24T09:23:14.092Z,2145
2017-06-24T09:24:14.088Z,2235
2017-06-24T09:25:14.085Z,3995
2017-06-24T09:26:14.078Z,2250
2017-06-24T09:27:14.081Z,2065
2017-06-24T09:28:14.064Z,3330
2017-06-24T09:29:13.758Z,2910
2017-06-24T09:30:13.453Z,2115
2017-06-24T09:31:14.055Z,2800
2017-06-24T09:32:14.039Z,2290
2017-06-24T09:33:14.037Z,2150
2017-06-24T09:34:14.039Z,1685
2017-06-24T09:35:14.025Z,2165
2017-06-24T09:36:14.026Z,2145
2017-06-24T09:37:14.021Z,2005
2017-06-24T09:38:14.012Z,1720
2017-06-24T09:39:13.999Z,1400
2017-06-24T09:40:14.021Z,1565
2017-06-24T09:41:13.995Z,1800
2017-06-24T09:42:13.687Z,1715
2017-06-24T09:43:13.985Z,1560
2017-06-24T09:44:13.976Z,1335
2017-06-24T09:45:13.977Z,1345
2017-06-24T09:46:13.680Z,1280
2017-06-24T09:47:13.974Z,1190
2017-06-24T09:48:13.957Z,1405
2017-06-24T09:49:13.952Z,1455
2017-06-24T09:50:13.648Z,1410
2017-06-24T09:51:13.965Z,1360
2017-06-24T09:52:13.940Z,1290
2017-06-24T09:53:13.628Z,1190
2017-06-24T09:54:13.930Z,1105
2017-06-24T09:55:13.945Z,1130
2017-06-24T09:56:13.910Z,1250
2017-06-24T09:57:13.908Z,1350
2017-06-24T09:58:13.925Z,1415
2017-06-24T09:59:13.593Z,1460
2017-06-24T10:00:13.590Z,1485
2017-06-24T10:01:13.881Z,1490
2017-06-24T10:02:13.270Z,1485
2017-06-24T10:03:13.565Z,1500
2017-06-24T10:04:13.880Z,1510
2017-06-24T10:05:13.555Z,1525
2017-06-24T10:06:13.869Z,1535
2017-06-24T10:07:13.536Z,1535
2017-06-24T10:08:13.535Z,1535
2017-06-24T10:09:13.527Z,1565
2017-06-24T10:10:13.526Z,1610
2017-06-24T10:11:13.819Z,1655
2017-06-24T10:12:13.830Z,1765
2017-06-24T10:13:13.824Z,1890
2017-06-24T10:14:13.810Z,2010
2017-06-24T10:15:13.497Z,1970
2017-06-24T10:16:13.814Z,2010
2017-06-24T10:17:13.775Z,2050
2017-06-24T10:18:13.793Z,2210
2017-06-24T10:19:13.781Z,2340
2017-06-24T10:20:13.756Z,2065
2017-06-24T10:21:13.753Z,1995
2017-06-24T10:22:13.750Z,1990
2017-06-24T10:23:13.448Z,2090
2017-06-24T10:24:13.142Z,2250
2017-06-24T10:25:13.756Z,2495
2017-06-24T10:26:13.727Z,2640
2017-06-24T10:27:13.404Z,2680
2017-06-24T10:28:13.420Z,2720
2017-06-24T10:29:13.722Z,2765
2017-06-24T10:30:13.715Z,2760
2017-06-24T10:31:13.700Z,2760
2017-06-24T10:32:13.697Z,2565
2017-06-24T10:33:13.669Z,2530
2017-06-24T10:34:13.403Z,2380
2017-06-24T10:35:13.057Z,2180
2017-06-24T10:36:13.661Z,2105
2017-06-24T10:37:13.346Z,2075
2017-06-24T10:38:13.641Z,2215
2017-06-24T10:39:13.631Z,2360
2017-06-24T10:40:13.628Z,2450
2017-06-24T10:41:13.625Z,2320
2017-06-24T10:42:13.620Z,2370
2017-06-24T10:43:13.607Z,2470
2017-06-24T10:44:13.607Z,2510
2017-06-24T10:45:13.605Z,2590
2017-06-24T10:46:13.296Z,2620
2017-06-24T10:47:13.585Z,2665
2017-06-24T10:48:13.587Z,2735
2017-06-24T10:49:13.581Z,2770
2017-06-24T10:50:13.566Z,2705
2017-06-24T10:51:13.565Z,2525
2017-06-24T10:52:13.563Z,2505
2017-06-24T10:53:13.258Z,2445
2017-06-24T10:54:13.556Z,2460
2017-06-24T10:55:13.540Z,2490
2017-06-24T10:56:13.537Z,2630
2017-06-24T10:57:13.527Z,2680
2017-06-24T10:58:13.531Z,2905
2017-06-24T10:59:13.520Z,2860
2017-06-24T11:00:13.517Z,2415
2017-06-24T11:01:13.522Z,2575
2017-06-24T11:02:13.505Z,2495
2017-06-24T11:03:13.195Z,2430
2017-06-24T11:04:13.522Z,2415
2017-06-24T11:05:13.489Z,2260
2017-06-24T11:06:13.203Z,2175
2017-06-24T11:07:13.476Z,2225
2017-06-24T11:08:13.474Z,2385
2017-06-24T11:09:13.468Z,2550
2017-06-24T11:10:13.467Z,2615
2017-06-24T11:11:13.458Z,2695
2017-06-24T11:12:13.146Z,2810
2017-06-24T11:13:13.140Z,3240
2017-06-24T11:14:13.441Z,3060
2017-06-24T11:15:13.430Z,2885
2017-06-24T11:16:13.425Z,2725
2017-06-24T11:17:13.423Z,2600
2017-06-24T11:18:13.119Z,2545
2017-06-24T11:19:13.410Z,2505
2017-06-24T11:20:13.406Z,2435
2017-06-24T11:21:13.408Z,2360
2017-06-24T11:22:13.099Z,2315
2017-06-24T11:23:13.403Z,2350
2017-06-24T11:24:13.393Z,2295
2017-06-24T11:25:13.390Z,2275
2017-06-24T11:26:13.382Z,2445
2017-06-24T11:27:13.393Z,2690
2017-06-24T11:28:13.373Z,2810
2017-06-24T11:29:13.365Z,2870
2017-06-24T11:30:13.069Z,3020
2017-06-24T11:31:13.363Z,3080
2017-06-24T11:32:13.356Z,3195
2017-06-24T11:33:13.354Z,3685
2017-06-24T11:34:13.355Z,3875
2017-06-24T11:35:13.342Z,3620
2017-06-24T11:36:13.346Z,3605
2017-06-24T11:37:13.042Z,3240
2017-06-24T11:38:13.335Z,3325
2017-06-24T11:39:13.334Z,3550
2017-06-24T11:40:13.333Z,4030
2017-06-24T11:41:13.326Z,4145
2017-06-24T11:42:13.324Z,4395
2017-06-24T11:43:13.314Z,4765
2017-06-24T11:44:13.317Z,5515
2017-06-24T11:45:13.317Z,5995
2017-06-24T11:46:13.310Z,5735
2017-06-24T11:47:13.308Z,5380
2017-06-24T11:48:13.000Z,5550
2017-06-24T11:49:13.303Z,6570
2017-06-24T11:50:13.296Z,6690
2017-06-24T11:51:13.297Z,6295
2017-06-24T11:52:13.292Z,5955
2017-06-24T11:53:13.292Z,5285
2017-06-24T11:54:13.286Z,4790
2017-06-24T11:55:12.983Z,4895
2017-06-24T11:56:13.279Z,5190
2017-06-24T11:57:13.282Z,5060
2017-06-24T11:58:13.276Z,4910
2017-06-24T11:59:13.277Z,5090
2017-06-24T12:00:13.277Z,4785
2017-06-24T12:01:12.970Z,4835
2017-06-24T12:02:12.974Z,5230
2017-06-24T12:03:13.267Z,5315
2017-06-24T12:04:12.961Z,4930
2017-06-24T12:05:13.260Z,4215
2017-06-24T12:06:13.255Z,3620
2017-06-24T12:07:13.257Z,3470
2017-06-24T12:08:13.256Z,4070
2017-06-24T12:09:12.950Z,4970
2017-06-24T12:10:13.249Z,4880
2017-06-24T12:11:13.245Z,4850
2017-06-24T12:12:13.241Z,4950
2017-06-24T12:13:13.243Z,4465
2017-06-24T12:14:13.236Z,4445
2017-06-24T12:15:13.236Z,4590
2017-06-24T12:16:13.232Z,4810
2017-06-24T12:17:12.933Z,4715
2017-06-24T12:18:13.233Z,4805
2017-06-24T12:19:13.231Z,4910
2017-06-24T12:20:13.229Z,4875
2017-06-24T12:21:12.930Z,5045
2017-06-24T12:22:13.232Z,4865
2017-06-24T12:23:13.220Z,4755
2017-06-24T12:24:12.919Z,5040
2017-06-24T12:25:13.220Z,5690
2017-06-24T12:26:13.216Z,5490
2017-06-24T12:27:13.216Z,4610
2017-06-24T12:28:13.214Z,5330
2017-06-24T12:29:13.218Z,6755
2017-06-24T12:30:12.913Z,6505
2017-06-24T12:31:13.210Z,2515
2017-06-24T12:32:13.205Z,3745
2017-06-24T12:33:13.208Z,2650
2017-06-24T12:34:12.905Z,3000
2017-06-24T12:35:13.206Z,2455
2017-06-24T12:36:13.201Z,3200
2017-06-24T12:37:13.201Z,4425
2017-06-24T12:38:13.201Z,4730
2017-06-24T12:39:13.201Z,5365
2017-06-24T12:40:12.906Z,2580
2017-06-24T12:41:13.187Z,3570
2017-06-24T12:42:12.886Z,4875
2017-06-24T12:43:13.187Z,4590
2017-06-24T12:44:12.880Z,4140
2017-06-24T12:45:13.181Z,3760
2017-06-24T12:46:13.181Z,4235
2017-06-24T12:47:13.179Z,4255
2017-06-24T12:48:13.182Z,3660
2017-06-24T12:49:13.174Z,4100
2017-06-24T12:50:13.177Z,5535
2017-06-24T12:51:13.175Z,5590
2017-06-24T12:52:12.565Z,3075
2017-06-24T12:53:12.874Z,3705
2017-06-24T12:54:13.163Z,4245
2017-06-24T12:55:12.558Z,2975
2017-06-24T12:56:13.158Z,6385
2017-06-24T12:57:12.859Z,3635
2017-06-24T12:58:13.150Z,5715
2017-06-24T12:59:13.156Z,5795
2017-06-24T13:00:13.159Z,2950
2017-06-24T13:01:12.848Z,4505
2017-06-24T13:02:13.152Z,4675
2017-06-24T13:03:13.150Z,2355
2017-06-24T13:04:13.147Z,2380
2017-06-24T13:05:13.135Z,5325
2017-06-24T13:06:13.143Z,5065
2017-06-24T13:07:13.135Z,4610
2017-06-24T13:08:13.126Z,5300
2017-06-24T13:09:13.123Z,5360
2017-06-24T13:10:13.122Z,4865
2017-06-24T13:11:13.120Z,4450
2017-06-24T13:12:13.127Z,4725
2017-06-24T13:13:12.808Z,4650
2017-06-24T13:14:12.810Z,4540
2017-06-24T13:15:12.808Z,4570
2017-06-24T13:16:13.106Z,4730
2017-06-24T13:17:13.099Z,4890
2017-06-24T13:18:13.098Z,4995
2017-06-24T13:19:13.095Z,4070
2017-06-24T13:20:12.794Z,2730
2017-06-24T13:21:13.092Z,4800
2017-06-24T13:22:13.090Z,3665
2017-06-24T13:23:13.083Z,2955
2017-06-24T13:24:13.090Z,4730
2017-06-24T13:25:13.080Z,3855
2017-06-24T13:26:13.092Z,2700
2017-06-24T13:27:12.783Z,2905
2017-06-24T13:28:13.071Z,3860
2017-06-24T13:29:13.075Z,2505
2017-06-24T13:30:13.073Z,5055
2017-06-24T13:31:13.079Z,5105
2017-06-24T13:32:13.070Z,1760
2017-06-24T13:33:13.068Z,1920
2017-06-24T13:34:13.069Z,1265
2017-06-24T13:35:13.062Z,1695
2017-06-24T13:36:13.063Z,1560
2017-06-24T13:37:13.059Z,2015
2017-06-24T13:38:13.050Z,1745
2017-06-24T13:39:13.052Z,1775
2017-06-24T13:40:13.046Z,1415
2017-06-24T13:41:13.042Z,2165
2017-06-24T13:42:12.742Z,2175
2017-06-24T13:43:13.032Z,1575